sensor_id;sensor_type;location;lat;lon;timestamp;P1;durP1;ratioP1;P2;durP2;ratioP2
8665;SDS011;4370;48.916;8.380;2023-01-31T00:02:03;5.03;;;3.80;;
8665;SDS011;4370;48.916;8.380;2023-01-31T00:04:29;4.60;;;4.10;;
8665;SDS011;4370;48.916;8.380;2023-01-31T00:06:55;6.07;;;3.90;;
8665;SDS011;4370;48.916;8.380;2023-01-31T00:09:21;5.07;;;3.90;;
8665;SDS011;4370;48.916;8.380;2023-01-31T00:11:46;5.03;;;3.70;;
8665;SDS011;4370;48.916;8.380;2023-01-31T00:14:14;5.63;;;4.10;;
8665;SDS011;4370;48.916;8.380;2023-01-31T00:16:42;5.20;;;3.90;;
8665;SDS011;4370;48.916;8.380;2023-01-31T00:19:08;4.57;;;3.87;;
8665;SDS011;4370;48.916;8.380;2023-01-31T00:21:34;5.67;;;4.20;;
8665;SDS011;4370;48.916;8.380;2023-01-31T00:24:00;6.30;;;3.80;;
8665;SDS011;4370;48.916;8.380;2023-01-31T00:26:30;6.67;;;4.03;;
8665;SDS011;4370;48.916;8.380;2023-01-31T00:28:56;6.50;;;4.30;;
8665;SDS011;4370;48.916;8.380;2023-01-31T00:31:23;7.63;;;4.10;;
8665;SDS011;4370;48.916;8.380;2023-01-31T00:33:50;4.43;;;3.40;;
8665;SDS011;4370;48.916;8.380;2023-01-31T00:36:18;6.33;;;4.60;;
8665;SDS011;4370;48.916;8.380;2023-01-31T00:38:46;4.10;;;3.27;;
8665;SDS011;4370;48.916;8.380;2023-01-31T00:41:13;6.30;;;4.27;;
8665;SDS011;4370;48.916;8.380;2023-01-31T00:43:39;4.47;;;3.83;;
8665;SDS011;4370;48.916;8.380;2023-01-31T00:46:05;7.37;;;4.27;;
8665;SDS011;4370;48.916;8.380;2023-01-31T00:48:31;6.00;;;4.07;;
8665;SDS011;4370;48.916;8.380;2023-01-31T00:50:57;6.23;;;4.37;;
8665;SDS011;4370;48.916;8.380;2023-01-31T00:53:23;6.47;;;4.60;;
8665;SDS011;4370;48.916;8.380;2023-01-31T00:55:50;6.13;;;4.30;;
8665;SDS011;4370;48.916;8.380;2023-01-31T00:58:16;4.57;;;3.90;;
8665;SDS011;4370;48.916;8.380;2023-01-31T01:00:43;6.70;;;4.37;;
8665;SDS011;4370;48.916;8.380;2023-01-31T01:03:09;6.93;;;4.07;;
8665;SDS011;4370;48.916;8.380;2023-01-31T01:05:35;5.87;;;3.87;;
8665;SDS011;4370;48.916;8.380;2023-01-31T01:08:00;6.67;;;4.53;;
8665;SDS011;4370;48.916;8.380;2023-01-31T01:10:27;8.80;;;4.73;;
8665;SDS011;4370;48.916;8.380;2023-01-31T01:12:52;6.53;;;4.60;;
8665;SDS011;4370;48.916;8.380;2023-01-31T01:15:18;8.33;;;4.63;;
8665;SDS011;4370;48.916;8.380;2023-01-31T01:17:44;6.63;;;4.83;;
8665;SDS011;4370;48.916;8.380;2023-01-31T01:20:10;6.37;;;4.47;;
8665;SDS011;4370;48.916;8.380;2023-01-31T01:22:36;7.37;;;5.00;;
8665;SDS011;4370;48.916;8.380;2023-01-31T01:25:02;6.50;;;4.63;;
8665;SDS011;4370;48.916;8.380;2023-01-31T01:27:29;12.03;;;5.80;;
8665;SDS011;4370;48.916;8.380;2023-01-31T01:29:55;7.80;;;5.00;;
8665;SDS011;4370;48.916;8.380;2023-01-31T01:32:20;7.70;;;4.90;;
8665;SDS011;4370;48.916;8.380;2023-01-31T01:34:46;7.10;;;5.17;;
8665;SDS011;4370;48.916;8.380;2023-01-31T01:37:12;8.23;;;5.20;;
8665;SDS011;4370;48.916;8.380;2023-01-31T01:39:44;7.30;;;5.20;;
8665;SDS011;4370;48.916;8.380;2023-01-31T01:42:13;6.47;;;4.87;;
8665;SDS011;4370;48.916;8.380;2023-01-31T01:44:46;6.23;;;5.07;;
8665;SDS011;4370;48.916;8.380;2023-01-31T01:47:32;9.90;;;5.57;;
8665;SDS011;4370;48.916;8.380;2023-01-31T01:52:53;8.33;;;6.00;;
8665;SDS011;4370;48.916;8.380;2023-01-31T01:55:31;9.63;;;6.07;;
8665;SDS011;4370;48.916;8.380;2023-01-31T01:58:09;12.53;;;6.13;;
8665;SDS011;4370;48.916;8.380;2023-01-31T02:00:36;9.97;;;5.60;;
8665;SDS011;4370;48.916;8.380;2023-01-31T02:03:03;9.50;;;5.87;;
8665;SDS011;4370;48.916;8.380;2023-01-31T02:05:35;12.33;;;6.10;;
8665;SDS011;4370;48.916;8.380;2023-01-31T02:08:05;9.43;;;5.87;;
8665;SDS011;4370;48.916;8.380;2023-01-31T02:10:43;10.30;;;5.70;;
8665;SDS011;4370;48.916;8.380;2023-01-31T02:13:22;10.33;;;5.80;;
8665;SDS011;4370;48.916;8.380;2023-01-31T02:15:48;11.37;;;6.07;;
8665;SDS011;4370;48.916;8.380;2023-01-31T02:18:13;11.17;;;6.40;;
8665;SDS011;4370;48.916;8.380;2023-01-31T02:29:27;13.07;;;7.30;;
8665;SDS011;4370;48.916;8.380;2023-01-31T02:42:52;10.47;;;6.90;;
8665;SDS011;4370;48.916;8.380;2023-01-31T02:48:18;11.97;;;6.83;;
8665;SDS011;4370;48.916;8.380;2023-01-31T02:51:04;12.53;;;7.17;;
8665;SDS011;4370;48.916;8.380;2023-01-31T02:56:41;11.30;;;6.97;;
8665;SDS011;4370;48.916;8.380;2023-01-31T02:59:12;11.20;;;7.30;;
8665;SDS011;4370;48.916;8.380;2023-01-31T03:01:46;10.63;;;6.93;;
8665;SDS011;4370;48.916;8.380;2023-01-31T03:04:19;12.80;;;6.93;;
8665;SDS011;4370;48.916;8.380;2023-01-31T03:06:47;12.93;;;7.47;;
8665;SDS011;4370;48.916;8.380;2023-01-31T03:09:37;12.77;;;7.23;;
8665;SDS011;4370;48.916;8.380;2023-01-31T03:12:21;14.63;;;7.97;;
8665;SDS011;4370;48.916;8.380;2023-01-31T03:18:15;11.97;;;7.93;;
8665;SDS011;4370;48.916;8.380;2023-01-31T03:21:08;11.27;;;7.83;;
8665;SDS011;4370;48.916;8.380;2023-01-31T03:23:38;12.60;;;8.23;;
8665;SDS011;4370;48.916;8.380;2023-01-31T03:26:07;14.10;;;8.17;;
8665;SDS011;4370;48.916;8.380;2023-01-31T03:28:34;12.20;;;8.53;;
8665;SDS011;4370;48.916;8.380;2023-01-31T03:31:17;13.53;;;8.70;;
8665;SDS011;4370;48.916;8.380;2023-01-31T03:33:48;12.17;;;8.07;;
8665;SDS011;4370;48.916;8.380;2023-01-31T03:41:31;13.00;;;9.27;;
8665;SDS011;4370;48.916;8.380;2023-01-31T03:44:12;16.03;;;8.30;;
8665;SDS011;4370;48.916;8.380;2023-01-31T03:46:49;14.10;;;9.20;;
8665;SDS011;4370;48.916;8.380;2023-01-31T03:49:19;14.50;;;9.43;;
8665;SDS011;4370;48.916;8.380;2023-01-31T03:51:50;15.67;;;9.67;;
8665;SDS011;4370;48.916;8.380;2023-01-31T03:54:21;16.13;;;9.47;;
8665;SDS011;4370;48.916;8.380;2023-01-31T03:56:53;14.47;;;8.50;;
8665;SDS011;4370;48.916;8.380;2023-01-31T03:59:25;16.33;;;9.27;;
8665;SDS011;4370;48.916;8.380;2023-01-31T04:01:54;16.57;;;9.13;;
8665;SDS011;4370;48.916;8.380;2023-01-31T04:04:24;15.77;;;8.63;;
8665;SDS011;4370;48.916;8.380;2023-01-31T04:06:56;12.30;;;9.17;;
8665;SDS011;4370;48.916;8.380;2023-01-31T04:09:22;12.10;;;8.33;;
8665;SDS011;4370;48.916;8.380;2023-01-31T04:11:48;13.63;;;8.60;;
8665;SDS011;4370;48.916;8.380;2023-01-31T04:14:15;16.60;;;9.37;;
8665;SDS011;4370;48.916;8.380;2023-01-31T04:16:41;12.43;;;8.33;;
8665;SDS011;4370;48.916;8.380;2023-01-31T04:19:07;14.93;;;9.47;;
8665;SDS011;4370;48.916;8.380;2023-01-31T04:21:33;13.67;;;9.23;;
8665;SDS011;4370;48.916;8.380;2023-01-31T04:23:59;16.83;;;10.13;;
8665;SDS011;4370;48.916;8.380;2023-01-31T04:26:25;20.37;;;10.07;;
8665;SDS011;4370;48.916;8.380;2023-01-31T04:28:51;16.33;;;9.40;;
8665;SDS011;4370;48.916;8.380;2023-01-31T04:31:17;18.13;;;9.63;;
8665;SDS011;4370;48.916;8.380;2023-01-31T04:33:43;14.87;;;9.20;;
8665;SDS011;4370;48.916;8.380;2023-01-31T04:36:09;15.83;;;9.13;;
8665;SDS011;4370;48.916;8.380;2023-01-31T04:38:35;15.00;;;9.10;;
8665;SDS011;4370;48.916;8.380;2023-01-31T04:41:01;15.73;;;9.27;;
8665;SDS011;4370;48.916;8.380;2023-01-31T04:43:27;18.23;;;9.07;;
8665;SDS011;4370;48.916;8.380;2023-01-31T04:45:52;16.13;;;9.63;;
8665;SDS011;4370;48.916;8.380;2023-01-31T04:48:18;15.40;;;9.73;;
8665;SDS011;4370;48.916;8.380;2023-01-31T04:50:44;20.90;;;9.33;;
8665;SDS011;4370;48.916;8.380;2023-01-31T04:53:10;16.00;;;10.20;;
8665;SDS011;4370;48.916;8.380;2023-01-31T04:55:36;16.00;;;9.37;;
8665;SDS011;4370;48.916;8.380;2023-01-31T04:58:02;15.90;;;9.80;;
8665;SDS011;4370;48.916;8.380;2023-01-31T05:00:28;18.67;;;9.27;;
8665;SDS011;4370;48.916;8.380;2023-01-31T05:02:54;14.23;;;9.70;;
8665;SDS011;4370;48.916;8.380;2023-01-31T05:05:20;18.07;;;9.97;;
8665;SDS011;4370;48.916;8.380;2023-01-31T05:07:46;17.87;;;10.17;;
8665;SDS011;4370;48.916;8.380;2023-01-31T05:10:12;14.50;;;9.13;;
8665;SDS011;4370;48.916;8.380;2023-01-31T05:12:38;21.67;;;10.77;;
8665;SDS011;4370;48.916;8.380;2023-01-31T05:15:04;15.50;;;9.77;;
8665;SDS011;4370;48.916;8.380;2023-01-31T05:17:31;16.97;;;9.83;;
8665;SDS011;4370;48.916;8.380;2023-01-31T05:19:58;17.17;;;9.93;;
8665;SDS011;4370;48.916;8.380;2023-01-31T05:22:24;18.67;;;10.93;;
8665;SDS011;4370;48.916;8.380;2023-01-31T05:24:50;17.57;;;10.30;;
8665;SDS011;4370;48.916;8.380;2023-01-31T05:27:16;16.77;;;10.43;;
8665;SDS011;4370;48.916;8.380;2023-01-31T05:29:43;17.80;;;10.77;;
8665;SDS011;4370;48.916;8.380;2023-01-31T05:32:09;17.57;;;10.97;;
8665;SDS011;4370;48.916;8.380;2023-01-31T05:34:35;16.40;;;10.40;;
8665;SDS011;4370;48.916;8.380;2023-01-31T05:37:01;16.93;;;10.40;;
8665;SDS011;4370;48.916;8.380;2023-01-31T05:39:28;15.13;;;10.17;;
8665;SDS011;4370;48.916;8.380;2023-01-31T05:41:54;16.40;;;10.60;;
8665;SDS011;4370;48.916;8.380;2023-01-31T05:44:20;18.63;;;11.40;;
8665;SDS011;4370;48.916;8.380;2023-01-31T05:46:46;14.37;;;10.40;;
8665;SDS011;4370;48.916;8.380;2023-01-31T05:49:12;19.13;;;10.53;;
8665;SDS011;4370;48.916;8.380;2023-01-31T05:51:38;17.87;;;10.57;;
8665;SDS011;4370;48.916;8.380;2023-01-31T05:54:04;19.63;;;11.80;;
8665;SDS011;4370;48.916;8.380;2023-01-31T05:56:30;17.73;;;10.80;;
8665;SDS011;4370;48.916;8.380;2023-01-31T05:58:56;15.67;;;10.87;;
8665;SDS011;4370;48.916;8.380;2023-01-31T06:01:23;16.37;;;10.43;;
8665;SDS011;4370;48.916;8.380;2023-01-31T06:03:50;17.13;;;10.90;;
8665;SDS011;4370;48.916;8.380;2023-01-31T06:06:16;17.60;;;10.83;;
8665;SDS011;4370;48.916;8.380;2023-01-31T06:08:42;16.43;;;10.10;;
8665;SDS011;4370;48.916;8.380;2023-01-31T06:11:09;20.60;;;11.80;;
8665;SDS011;4370;48.916;8.380;2023-01-31T06:13:36;15.53;;;10.30;;
8665;SDS011;4370;48.916;8.380;2023-01-31T06:16:02;18.07;;;11.87;;
8665;SDS011;4370;48.916;8.380;2023-01-31T06:18:28;17.73;;;10.40;;
8665;SDS011;4370;48.916;8.380;2023-01-31T06:20:54;15.90;;;10.10;;
8665;SDS011;4370;48.916;8.380;2023-01-31T06:23:19;18.47;;;10.67;;
8665;SDS011;4370;48.916;8.380;2023-01-31T06:25:48;17.60;;;11.03;;
8665;SDS011;4370;48.916;8.380;2023-01-31T06:28:19;15.77;;;10.67;;
8665;SDS011;4370;48.916;8.380;2023-01-31T06:30:45;17.33;;;10.67;;
8665;SDS011;4370;48.916;8.380;2023-01-31T06:33:11;22.80;;;11.60;;
8665;SDS011;4370;48.916;8.380;2023-01-31T06:35:37;18.63;;;11.10;;
8665;SDS011;4370;48.916;8.380;2023-01-31T06:38:03;16.93;;;11.17;;
8665;SDS011;4370;48.916;8.380;2023-01-31T06:40:29;19.03;;;12.20;;
8665;SDS011;4370;48.916;8.380;2023-01-31T06:42:56;17.20;;;12.13;;
8665;SDS011;4370;48.916;8.380;2023-01-31T06:45:22;18.53;;;10.80;;
8665;SDS011;4370;48.916;8.380;2023-01-31T06:47:48;19.20;;;11.37;;
8665;SDS011;4370;48.916;8.380;2023-01-31T06:50:13;20.73;;;11.70;;
8665;SDS011;4370;48.916;8.380;2023-01-31T06:52:39;18.63;;;11.97;;
8665;SDS011;4370;48.916;8.380;2023-01-31T06:55:05;17.90;;;11.17;;
8665;SDS011;4370;48.916;8.380;2023-01-31T06:57:31;19.93;;;11.57;;
8665;SDS011;4370;48.916;8.380;2023-01-31T06:59:57;18.70;;;11.77;;
8665;SDS011;4370;48.916;8.380;2023-01-31T07:02:23;17.30;;;10.70;;
8665;SDS011;4370;48.916;8.380;2023-01-31T07:04:49;17.50;;;11.13;;
8665;SDS011;4370;48.916;8.380;2023-01-31T07:07:15;20.57;;;11.10;;
8665;SDS011;4370;48.916;8.380;2023-01-31T07:09:41;14.30;;;9.27;;
8665;SDS011;4370;48.916;8.380;2023-01-31T07:12:06;18.60;;;10.37;;
8665;SDS011;4370;48.916;8.380;2023-01-31T07:14:32;15.97;;;9.50;;
8665;SDS011;4370;48.916;8.380;2023-01-31T07:16:58;16.33;;;10.43;;
8665;SDS011;4370;48.916;8.380;2023-01-31T07:19:24;17.40;;;9.33;;
8665;SDS011;4370;48.916;8.380;2023-01-31T07:21:50;17.70;;;10.33;;
8665;SDS011;4370;48.916;8.380;2023-01-31T07:24:16;14.80;;;9.47;;
8665;SDS011;4370;48.916;8.380;2023-01-31T07:26:42;17.30;;;9.53;;
8665;SDS011;4370;48.916;8.380;2023-01-31T07:29:08;15.77;;;9.90;;
8665;SDS011;4370;48.916;8.380;2023-01-31T07:31:35;16.13;;;9.67;;
8665;SDS011;4370;48.916;8.380;2023-01-31T07:34:01;14.67;;;9.57;;
8665;SDS011;4370;48.916;8.380;2023-01-31T07:36:27;15.93;;;9.87;;
8665;SDS011;4370;48.916;8.380;2023-01-31T07:38:54;16.37;;;9.70;;
8665;SDS011;4370;48.916;8.380;2023-01-31T07:41:21;14.90;;;9.73;;
8665;SDS011;4370;48.916;8.380;2023-01-31T07:43:50;13.10;;;8.83;;
8665;SDS011;4370;48.916;8.380;2023-01-31T07:46:16;15.50;;;9.50;;
8665;SDS011;4370;48.916;8.380;2023-01-31T07:48:42;12.40;;;8.80;;
8665;SDS011;4370;48.916;8.380;2023-01-31T07:51:08;20.73;;;9.50;;
8665;SDS011;4370;48.916;8.380;2023-01-31T07:53:34;14.83;;;9.30;;
8665;SDS011;4370;48.916;8.380;2023-01-31T07:56:10;15.37;;;9.37;;
8665;SDS011;4370;48.916;8.380;2023-01-31T07:58:38;16.03;;;10.43;;
8665;SDS011;4370;48.916;8.380;2023-01-31T08:01:05;16.23;;;9.97;;
8665;SDS011;4370;48.916;8.380;2023-01-31T08:03:49;15.97;;;10.60;;
8665;SDS011;4370;48.916;8.380;2023-01-31T08:06:16;15.67;;;10.37;;
8665;SDS011;4370;48.916;8.380;2023-01-31T08:08:42;16.33;;;10.70;;
8665;SDS011;4370;48.916;8.380;2023-01-31T08:11:08;13.47;;;9.23;;
8665;SDS011;4370;48.916;8.380;2023-01-31T08:13:34;15.17;;;9.67;;
8665;SDS011;4370;48.916;8.380;2023-01-31T08:16:01;16.27;;;9.00;;
8665;SDS011;4370;48.916;8.380;2023-01-31T08:18:27;14.07;;;9.60;;
8665;SDS011;4370;48.916;8.380;2023-01-31T08:20:55;16.10;;;9.63;;
8665;SDS011;4370;48.916;8.380;2023-01-31T08:23:21;13.67;;;9.07;;
8665;SDS011;4370;48.916;8.380;2023-01-31T08:25:47;14.10;;;9.87;;
8665;SDS011;4370;48.916;8.380;2023-01-31T08:28:13;15.33;;;9.63;;
8665;SDS011;4370;48.916;8.380;2023-01-31T08:30:42;15.03;;;9.13;;
8665;SDS011;4370;48.916;8.380;2023-01-31T08:33:09;13.77;;;9.30;;
8665;SDS011;4370;48.916;8.380;2023-01-31T08:35:36;15.07;;;9.23;;
8665;SDS011;4370;48.916;8.380;2023-01-31T08:38:02;16.27;;;9.27;;
8665;SDS011;4370;48.916;8.380;2023-01-31T08:40:28;14.87;;;9.70;;
8665;SDS011;4370;48.916;8.380;2023-01-31T08:42:54;17.67;;;9.87;;
8665;SDS011;4370;48.916;8.380;2023-01-31T08:45:21;14.10;;;9.50;;
8665;SDS011;4370;48.916;8.380;2023-01-31T08:47:51;13.93;;;9.30;;
8665;SDS011;4370;48.916;8.380;2023-01-31T08:50:21;15.10;;;9.93;;
8665;SDS011;4370;48.916;8.380;2023-01-31T08:52:55;13.97;;;8.40;;
8665;SDS011;4370;48.916;8.380;2023-01-31T08:55:22;13.53;;;8.83;;
8665;SDS011;4370;48.916;8.380;2023-01-31T08:57:49;14.73;;;8.30;;
8665;SDS011;4370;48.916;8.380;2023-01-31T09:00:16;17.20;;;8.93;;
8665;SDS011;4370;48.916;8.380;2023-01-31T09:02:42;16.97;;;9.40;;
8665;SDS011;4370;48.916;8.380;2023-01-31T09:05:10;13.47;;;8.30;;
8665;SDS011;4370;48.916;8.380;2023-01-31T09:07:36;13.47;;;8.27;;
8665;SDS011;4370;48.916;8.380;2023-01-31T09:10:02;108.83;;;42.20;;
8665;SDS011;4370;48.916;8.380;2023-01-31T09:12:28;24.43;;;14.07;;
8665;SDS011;4370;48.916;8.380;2023-01-31T09:14:54;19.07;;;12.67;;
8665;SDS011;4370;48.916;8.380;2023-01-31T09:17:20;14.47;;;9.50;;
8665;SDS011;4370;48.916;8.380;2023-01-31T09:19:46;11.73;;;9.17;;
8665;SDS011;4370;48.916;8.380;2023-01-31T09:22:13;14.70;;;10.40;;
8665;SDS011;4370;48.916;8.380;2023-01-31T09:24:38;16.50;;;10.07;;
8665;SDS011;4370;48.916;8.380;2023-01-31T09:27:04;13.93;;;9.80;;
8665;SDS011;4370;48.916;8.380;2023-01-31T09:29:30;15.23;;;10.77;;
8665;SDS011;4370;48.916;8.380;2023-01-31T09:31:56;18.07;;;12.77;;
8665;SDS011;4370;48.916;8.380;2023-01-31T09:34:22;16.50;;;11.20;;
8665;SDS011;4370;48.916;8.380;2023-01-31T09:36:48;14.40;;;9.17;;
8665;SDS011;4370;48.916;8.380;2023-01-31T09:39:14;15.40;;;9.17;;
8665;SDS011;4370;48.916;8.380;2023-01-31T09:41:47;12.00;;;8.67;;
8665;SDS011;4370;48.916;8.380;2023-01-31T09:44:24;16.83;;;9.07;;
8665;SDS011;4370;48.916;8.380;2023-01-31T09:47:00;21.53;;;12.30;;
8665;SDS011;4370;48.916;8.380;2023-01-31T09:49:43;39.83;;;18.53;;
8665;SDS011;4370;48.916;8.380;2023-01-31T09:52:12;24.07;;;12.97;;
8665;SDS011;4370;48.916;8.380;2023-01-31T09:54:38;17.73;;;10.30;;
8665;SDS011;4370;48.916;8.380;2023-01-31T09:59:46;16.37;;;10.40;;
8665;SDS011;4370;48.916;8.380;2023-01-31T10:07:59;20.67;;;11.73;;
8665;SDS011;4370;48.916;8.380;2023-01-31T10:10:36;17.20;;;9.67;;
8665;SDS011;4370;48.916;8.380;2023-01-31T10:13:17;15.93;;;10.20;;
8665;SDS011;4370;48.916;8.380;2023-01-31T10:16:02;16.17;;;9.33;;
8665;SDS011;4370;48.916;8.380;2023-01-31T10:18:34;16.23;;;9.80;;
8665;SDS011;4370;48.916;8.380;2023-01-31T10:26:40;18.13;;;10.37;;
8665;SDS011;4370;48.916;8.380;2023-01-31T10:29:27;17.00;;;9.07;;
8665;SDS011;4370;48.916;8.380;2023-01-31T10:34:33;15.03;;;8.90;;
8665;SDS011;4370;48.916;8.380;2023-01-31T10:37:13;15.03;;;9.20;;
8665;SDS011;4370;48.916;8.380;2023-01-31T10:39:49;15.67;;;9.50;;
8665;SDS011;4370;48.916;8.380;2023-01-31T10:42:33;24.10;;;14.23;;
8665;SDS011;4370;48.916;8.380;2023-01-31T10:47:33;14.83;;;10.47;;
8665;SDS011;4370;48.916;8.380;2023-01-31T10:50:00;19.53;;;10.80;;
8665;SDS011;4370;48.916;8.380;2023-01-31T10:58:06;15.57;;;8.90;;
8665;SDS011;4370;48.916;8.380;2023-01-31T11:00:43;12.00;;;7.77;;
8665;SDS011;4370;48.916;8.380;2023-01-31T11:03:11;16.63;;;8.57;;
8665;SDS011;4370;48.916;8.380;2023-01-31T11:05:38;13.80;;;7.43;;
8665;SDS011;4370;48.916;8.380;2023-01-31T11:11:15;14.20;;;8.17;;
8665;SDS011;4370;48.916;8.380;2023-01-31T11:14:04;11.40;;;6.80;;
8665;SDS011;4370;48.916;8.380;2023-01-31T11:16:41;14.60;;;6.13;;
8665;SDS011;4370;48.916;8.380;2023-01-31T11:19:17;10.50;;;6.20;;
8665;SDS011;4370;48.916;8.380;2023-01-31T11:21:49;9.07;;;5.90;;
8665;SDS011;4370;48.916;8.380;2023-01-31T11:24:19;10.90;;;5.80;;
8665;SDS011;4370;48.916;8.380;2023-01-31T11:26:54;9.03;;;4.93;;
8665;SDS011;4370;48.916;8.380;2023-01-31T11:29:38;11.30;;;6.40;;
8665;SDS011;4370;48.916;8.380;2023-01-31T11:32:17;13.43;;;5.70;;
8665;SDS011;4370;48.916;8.380;2023-01-31T11:35:21;10.63;;;6.33;;
8665;SDS011;4370;48.916;8.380;2023-01-31T11:37:37;12.03;;;6.33;;
8665;SDS011;4370;48.916;8.380;2023-01-31T11:42:53;13.77;;;7.70;;
8665;SDS011;4370;48.916;8.380;2023-01-31T11:45:29;14.10;;;7.83;;
8665;SDS011;4370;48.916;8.380;2023-01-31T11:48:21;12.40;;;6.80;;
8665;SDS011;4370;48.916;8.380;2023-01-31T11:50:50;12.07;;;6.00;;
8665;SDS011;4370;48.916;8.380;2023-01-31T11:53:20;15.80;;;6.63;;
8665;SDS011;4370;48.916;8.380;2023-01-31T11:55:49;10.40;;;5.97;;
8665;SDS011;4370;48.916;8.380;2023-01-31T11:58:20;8.90;;;4.90;;
8665;SDS011;4370;48.916;8.380;2023-01-31T12:01:00;9.13;;;5.07;;
8665;SDS011;4370;48.916;8.380;2023-01-31T12:03:31;11.23;;;6.13;;
8665;SDS011;4370;48.916;8.380;2023-01-31T12:06:04;11.20;;;5.50;;
8665;SDS011;4370;48.916;8.380;2023-01-31T12:08:35;9.97;;;5.63;;
8665;SDS011;4370;48.916;8.380;2023-01-31T12:13:48;13.27;;;5.90;;
8665;SDS011;4370;48.916;8.380;2023-01-31T12:16:21;15.97;;;7.30;;
8665;SDS011;4370;48.916;8.380;2023-01-31T12:18:57;14.90;;;7.37;;
8665;SDS011;4370;48.916;8.380;2023-01-31T12:24:20;14.57;;;6.83;;
8665;SDS011;4370;48.916;8.380;2023-01-31T12:26:55;23.53;;;11.13;;
8665;SDS011;4370;48.916;8.380;2023-01-31T12:35:40;11.87;;;5.83;;
8665;SDS011;4370;48.916;8.380;2023-01-31T12:52:04;8.07;;;3.87;;
8665;SDS011;4370;48.916;8.380;2023-01-31T13:05:25;9.10;;;4.07;;
8665;SDS011;4370;48.916;8.380;2023-01-31T13:07:53;8.03;;;4.67;;
8665;SDS011;4370;48.916;8.380;2023-01-31T13:10:26;11.23;;;3.50;;
8665;SDS011;4370;48.916;8.380;2023-01-31T13:12:57;7.40;;;3.60;;
8665;SDS011;4370;48.916;8.380;2023-01-31T13:15:27;6.57;;;3.37;;
8665;SDS011;4370;48.916;8.380;2023-01-31T13:17:56;6.37;;;3.57;;
8665;SDS011;4370;48.916;8.380;2023-01-31T13:20:28;6.23;;;3.20;;
8665;SDS011;4370;48.916;8.380;2023-01-31T13:23:04;7.83;;;3.27;;
8665;SDS011;4370;48.916;8.380;2023-01-31T13:25:55;3.67;;;2.90;;
8665;SDS011;4370;48.916;8.380;2023-01-31T13:28:48;5.63;;;3.20;;
8665;SDS011;4370;48.916;8.380;2023-01-31T13:31:32;5.37;;;3.30;;
8665;SDS011;4370;48.916;8.380;2023-01-31T13:34:04;6.30;;;3.07;;
8665;SDS011;4370;48.916;8.380;2023-01-31T13:37:03;6.17;;;3.33;;
8665;SDS011;4370;48.916;8.380;2023-01-31T13:39:40;4.73;;;2.57;;
8665;SDS011;4370;48.916;8.380;2023-01-31T13:42:10;6.10;;;3.23;;
8665;SDS011;4370;48.916;8.380;2023-01-31T13:44:38;6.87;;;3.10;;
8665;SDS011;4370;48.916;8.380;2023-01-31T13:49:41;5.23;;;3.00;;
8665;SDS011;4370;48.916;8.380;2023-01-31T13:52:16;5.37;;;3.10;;
8665;SDS011;4370;48.916;8.380;2023-01-31T13:54:54;8.20;;;4.30;;
8665;SDS011;4370;48.916;8.380;2023-01-31T13:57:33;11.17;;;6.07;;
8665;SDS011;4370;48.916;8.380;2023-01-31T14:00:28;12.57;;;4.70;;
8665;SDS011;4370;48.916;8.380;2023-01-31T14:08:29;10.93;;;5.13;;
8665;SDS011;4370;48.916;8.380;2023-01-31T14:19:01;15.57;;;6.90;;
8665;SDS011;4370;48.916;8.380;2023-01-31T14:23:57;12.50;;;5.60;;
8665;SDS011;4370;48.916;8.380;2023-01-31T14:29:08;15.60;;;7.70;;
8665;SDS011;4370;48.916;8.380;2023-01-31T14:31:38;13.17;;;6.47;;
8665;SDS011;4370;48.916;8.380;2023-01-31T14:34:04;13.23;;;6.33;;
8665;SDS011;4370;48.916;8.380;2023-01-31T14:36:54;9.93;;;4.67;;
8665;SDS011;4370;48.916;8.380;2023-01-31T14:39:32;9.57;;;4.97;;
8665;SDS011;4370;48.916;8.380;2023-01-31T14:51:10;8.27;;;4.13;;
8665;SDS011;4370;48.916;8.380;2023-01-31T14:58:59;10.60;;;4.03;;
8665;SDS011;4370;48.916;8.380;2023-01-31T15:01:31;6.77;;;4.40;;
8665;SDS011;4370;48.916;8.380;2023-01-31T15:03:59;8.93;;;3.87;;
8665;SDS011;4370;48.916;8.380;2023-01-31T15:06:26;6.87;;;3.90;;
8665;SDS011;4370;48.916;8.380;2023-01-31T15:11:54;8.53;;;4.10;;
8665;SDS011;4370;48.916;8.380;2023-01-31T15:14:26;6.50;;;3.90;;
8665;SDS011;4370;48.916;8.380;2023-01-31T15:17:12;6.63;;;3.90;;
8665;SDS011;4370;48.916;8.380;2023-01-31T15:19:46;8.93;;;4.10;;
8665;SDS011;4370;48.916;8.380;2023-01-31T15:22:16;8.93;;;4.10;;
8665;SDS011;4370;48.916;8.380;2023-01-31T15:24:45;6.87;;;3.57;;
8665;SDS011;4370;48.916;8.380;2023-01-31T15:27:19;7.70;;;4.20;;
8665;SDS011;4370;48.916;8.380;2023-01-31T15:30:10;8.17;;;3.93;;
8665;SDS011;4370;48.916;8.380;2023-01-31T15:32:51;7.60;;;4.50;;
8665;SDS011;4370;48.916;8.380;2023-01-31T15:35:36;18.17;;;9.17;;
8665;SDS011;4370;48.916;8.380;2023-01-31T15:41:03;8.90;;;5.00;;
8665;SDS011;4370;48.916;8.380;2023-01-31T15:43:50;17.23;;;7.83;;
8665;SDS011;4370;48.916;8.380;2023-01-31T15:46:26;12.57;;;6.00;;
8665;SDS011;4370;48.916;8.380;2023-01-31T15:48:56;9.63;;;5.90;;
8665;SDS011;4370;48.916;8.380;2023-01-31T15:51:23;13.13;;;6.50;;
8665;SDS011;4370;48.916;8.380;2023-01-31T15:54:02;9.23;;;5.87;;
8665;SDS011;4370;48.916;8.380;2023-01-31T15:56:30;9.90;;;5.63;;
8665;SDS011;4370;48.916;8.380;2023-01-31T15:58:58;8.23;;;4.57;;
8665;SDS011;4370;48.916;8.380;2023-01-31T16:01:27;8.97;;;5.53;;
8665;SDS011;4370;48.916;8.380;2023-01-31T16:03:55;9.47;;;5.20;;
8665;SDS011;4370;48.916;8.380;2023-01-31T16:06:27;11.03;;;5.60;;
8665;SDS011;4370;48.916;8.380;2023-01-31T16:08:58;10.53;;;5.97;;
8665;SDS011;4370;48.916;8.380;2023-01-31T16:11:26;11.00;;;5.83;;
8665;SDS011;4370;48.916;8.380;2023-01-31T16:13:55;10.23;;;5.60;;
8665;SDS011;4370;48.916;8.380;2023-01-31T16:16:22;9.55;;;5.53;;
8665;SDS011;4370;48.916;8.380;2023-01-31T16:18:50;11.23;;;5.40;;
8665;SDS011;4370;48.916;8.380;2023-01-31T16:23:59;7.17;;;4.37;;
8665;SDS011;4370;48.916;8.380;2023-01-31T16:26:26;7.87;;;5.10;;
8665;SDS011;4370;48.916;8.380;2023-01-31T16:28:57;8.63;;;5.13;;
8665;SDS011;4370;48.916;8.380;2023-01-31T16:31:26;9.87;;;5.40;;
8665;SDS011;4370;48.916;8.380;2023-01-31T16:33:55;10.67;;;5.10;;
8665;SDS011;4370;48.916;8.380;2023-01-31T16:36:26;9.00;;;4.50;;
8665;SDS011;4370;48.916;8.380;2023-01-31T16:39:00;9.07;;;5.20;;
8665;SDS011;4370;48.916;8.380;2023-01-31T16:41:35;9.37;;;5.00;;
8665;SDS011;4370;48.916;8.380;2023-01-31T16:44:15;7.67;;;4.27;;
8665;SDS011;4370;48.916;8.380;2023-01-31T16:46:44;8.03;;;5.43;;
8665;SDS011;4370;48.916;8.380;2023-01-31T16:49:18;8.57;;;4.50;;
8665;SDS011;4370;48.916;8.380;2023-01-31T16:52:33;12.23;;;5.30;;
8665;SDS011;4370;48.916;8.380;2023-01-31T16:54:49;7.23;;;4.70;;
8665;SDS011;4370;48.916;8.380;2023-01-31T16:59:57;7.13;;;4.60;;
8665;SDS011;4370;48.916;8.380;2023-01-31T17:02:25;6.97;;;4.60;;
8665;SDS011;4370;48.916;8.380;2023-01-31T17:04:55;10.70;;;6.10;;
8665;SDS011;4370;48.916;8.380;2023-01-31T17:07:26;9.17;;;5.40;;
8665;SDS011;4370;48.916;8.380;2023-01-31T17:09:55;13.90;;;5.03;;
8665;SDS011;4370;48.916;8.380;2023-01-31T17:12:24;7.33;;;4.77;;
8665;SDS011;4370;48.916;8.380;2023-01-31T17:14:51;9.03;;;4.80;;
8665;SDS011;4370;48.916;8.380;2023-01-31T17:17:27;8.70;;;5.03;;
8665;SDS011;4370;48.916;8.380;2023-01-31T17:19:55;9.63;;;5.33;;
8665;SDS011;4370;48.916;8.380;2023-01-31T17:22:20;12.23;;;6.53;;
8665;SDS011;4370;48.916;8.380;2023-01-31T17:24:47;12.50;;;6.63;;
8665;SDS011;4370;48.916;8.380;2023-01-31T17:27:14;10.33;;;5.67;;
8665;SDS011;4370;48.916;8.380;2023-01-31T17:29:40;9.70;;;5.80;;
8665;SDS011;4370;48.916;8.380;2023-01-31T17:32:13;9.07;;;5.37;;
8665;SDS011;4370;48.916;8.380;2023-01-31T17:34:40;9.00;;;5.20;;
8665;SDS011;4370;48.916;8.380;2023-01-31T17:37:06;12.80;;;6.67;;
8665;SDS011;4370;48.916;8.380;2023-01-31T17:39:32;10.00;;;5.20;;
8665;SDS011;4370;48.916;8.380;2023-01-31T17:41:58;9.40;;;5.00;;
8665;SDS011;4370;48.916;8.380;2023-01-31T17:44:25;11.20;;;6.03;;
8665;SDS011;4370;48.916;8.380;2023-01-31T17:46:50;11.37;;;6.37;;
8665;SDS011;4370;48.916;8.380;2023-01-31T17:49:16;12.23;;;6.40;;
8665;SDS011;4370;48.916;8.380;2023-01-31T17:51:42;9.90;;;5.10;;